Time;durP1;ratioP1;P1;durP2;ratioP2;P2;SDS_P1;SDS_P2;PMS_P1;PMS_P2;Temp;Humidity;BMP_temperature;BMP_pressure;BME280_temperature;BME280_humidity;BME280_pressure;Samples;Min_cycle;Max_cycle;Signal;HPM_P1;HPM_P2
2023/09/27 00:01:51;;;;;;;19.77;11.43;;;;;;;10.51;85.58;100837.09;5031328;28;20043;-70
2023/09/27 00:04:16;;;;;;;22.55;11.48;;;;;;;10.50;85.43;100819.38;5029542;28;20044;-70
2023/09/27 00:06:41;;;;;;;21.15;10.60;;;;;;;10.47;85.50;100824.91;5032462;28;20485;-71
2023/09/27 00:09:08;;;;;;;23.52;12.43;;;;;;;10.48;85.89;100837.28;5035233;28;20051;-70
2023/09/27 00:11:33;;;;;;;19.15;11.00;;;;;;;10.48;86.41;100818.63;4998013;28;20048;-70
2023/09/27 00:13:59;;;;;;;18.83;11.13;;;;;;;10.48;86.21;100821.28;5049064;28;20044;-70
2023/09/27 00:16:24;;;;;;;18.67;10.57;;;;;;;10.49;86.20;100825.69;5030971;28;20052;-70
2023/09/27 00:18:49;;;;;;;26.02;11.57;;;;;;;10.50;85.70;100830.03;5033646;28;20055;-70
2023/09/27 00:21:14;;;;;;;18.65;10.82;;;;;;;10.53;85.71;100816.56;5052139;28;20462;-70
2023/09/27 00:23:40;;;;;;;20.00;10.35;;;;;;;10.54;85.64;100815.63;5036501;28;20071;-69
2023/09/27 00:26:05;;;;;;;21.98;11.65;;;;;;;10.57;85.51;100808.41;5036443;28;20051;-71
2023/09/27 00:28:30;;;;;;;39.28;13.48;;;;;;;10.61;84.94;100805.47;5036023;28;20055;-69
2023/09/27 00:30:55;;;;;;;21.77;11.43;;;;;;;10.64;85.08;100804.47;5035363;28;20521;-70
2023/09/27 00:33:21;;;;;;;19.00;11.27;;;;;;;10.64;84.64;100831.13;5054072;28;20055;-69
2023/09/27 00:35:50;;;;;;;21.50;11.55;;;;;;;10.68;84.74;100806.03;5038405;28;20052;-80
2023/09/27 00:38:15;;;;;;;27.05;12.07;;;;;;;10.63;83.99;100805.41;5052786;28;20045;-79
2023/09/27 00:40:47;;;;;;;23.08;11.77;;;;;;;10.63;83.91;100808.06;5038815;28;20044;-79
2023/09/27 00:43:30;;;;;;;18.35;11.25;;;;;;;10.68;84.10;100816.69;5057111;28;20032;-78
2023/09/27 00:46:05;;;;;;;27.92;10.93;;;;;;;10.66;83.90;100807.91;5038251;28;20051;-79
2023/09/27 00:48:31;;;;;;;19.70;10.70;;;;;;;10.63;84.15;100830.25;5022740;28;20066;-79
2023/09/27 00:50:57;;;;;;;15.05;10.15;;;;;;;10.60;83.78;100808.25;5021179;28;20418;-72
2023/09/27 00:53:25;;;;;;;20.45;11.68;;;;;;;10.54;83.65;100815.63;5037392;28;20047;-72
2023/09/27 00:55:51;;;;;;;17.27;9.93;;;;;;;10.49;84.24;100806.16;5052604;28;20040;-71
2023/09/27 00:58:20;;;;;;;19.00;10.52;;;;;;;10.46;84.25;100817.84;5033521;28;20530;-71
2023/09/27 01:00:48;;;;;;;20.02;11.75;;;;;;;10.39;84.32;100826.22;5036998;28;20062;-72
2023/09/27 01:03:13;;;;;;;18.40;10.73;;;;;;;10.33;84.88;100811.41;5052450;28;20390;-69
2023/09/27 01:05:42;;;;;;;20.30;10.65;;;;;;;10.29;85.44;100817.81;5052483;28;20040;-69
2023/09/27 01:08:07;;;;;;;16.25;10.68;;;;;;;10.28;85.51;100817.91;5053469;28;20097;-70
2023/09/27 01:10:34;;;;;;;20.42;11.00;;;;;;;10.23;85.68;100815.50;5055001;28;20513;-69
2023/09/27 01:12:59;;;;;;;18.50;10.80;;;;;;;10.19;86.12;100852.09;5032766;28;20048;-70
2023/09/27 01:15:26;;;;;;;22.17;11.07;;;;;;;10.19;86.17;100814.78;5053200;28;20044;-69
2023/09/27 01:18:01;;;;;;;17.73;10.68;;;;;;;10.22;86.36;100813.75;5022345;28;20067;-70
2023/09/27 01:20:29;;;;;;;20.85;10.30;;;;;;;10.17;86.25;100808.63;5064009;28;20041;-70
2023/09/27 01:22:59;;;;;;;20.52;9.85;;;;;;;10.18;86.80;100807.72;5030249;28;20521;-70
2023/09/27 01:25:32;;;;;;;18.83;10.70;;;;;;;10.20;86.36;100810.31;5011513;28;20047;-69
2023/09/27 01:28:01;;;;;;;15.27;10.73;;;;;;;10.16;86.07;100803.38;5029611;28;20045;-70
2023/09/27 01:30:33;;;;;;;18.92;10.57;;;;;;;10.13;86.58;100809.75;5033079;28;20052;-69
2023/09/27 01:33:09;;;;;;;20.55;11.63;;;;;;;10.17;86.55;100815.75;5056594;28;20395;-69
2023/09/27 01:35:36;;;;;;;18.50;10.77;;;;;;;10.08;86.51;100832.22;5037678;28;20469;-71
2023/09/27 01:38:06;;;;;;;18.20;11.20;;;;;;;10.08;86.68;100816.22;5037165;28;20461;-68
2023/09/27 01:40:32;;;;;;;17.90;9.80;;;;;;;10.06;86.61;100844.75;5037801;28;20044;-69
2023/09/27 01:43:02;;;;;;;16.85;10.95;;;;;;;10.15;87.14;100828.31;5020304;28;20044;-71
2023/09/27 01:45:31;;;;;;;19.05;10.63;;;;;;;10.21;86.79;100828.03;4998319;28;20384;-71
2023/09/27 01:47:58;;;;;;;15.32;10.07;;;;;;;10.28;86.78;100810.78;4994202;28;20059;-71
2023/09/27 01:50:24;;;;;;;18.08;10.90;;;;;;;10.36;86.68;100805.94;5042469;28;20052;-76
2023/09/27 01:52:51;;;;;;;17.05;9.75;;;;;;;10.43;85.93;100807.31;5070836;28;20043;-76
2023/09/27 01:55:16;;;;;;;20.42;10.00;;;;;;;10.50;85.67;100813.19;5046660;28;20039;-75
2023/09/27 01:57:45;;;;;;;12.10;8.63;;;;;;;10.51;85.08;100810.44;4995492;28;20052;-75
2023/09/27 02:00:11;;;;;;;16.48;9.40;;;;;;;10.51;84.30;100807.78;5018536;28;20119;-73
2023/09/27 02:02:38;;;;;;;17.70;9.43;;;;;;;10.48;84.60;100805.28;5031135;28;20045;-75
2023/09/27 02:05:04;;;;;;;17.10;10.32;;;;;;;10.43;84.44;100794.00;5018333;28;20044;-73
2023/09/27 02:07:30;;;;;;;18.92;10.75;;;;;;;10.39;84.65;100812.88;5015860;28;20502;-72
2023/09/27 02:09:56;;;;;;;18.95;9.88;;;;;;;10.36;84.32;100799.72;5012183;28;20056;-69
2023/09/27 02:12:21;;;;;;;17.70;9.63;;;;;;;10.36;84.22;100816.59;5021287;28;20040;-68
2023/09/27 02:14:46;;;;;;;17.02;9.82;;;;;;;10.35;84.73;100798.00;5047290;28;20043;-70
2023/09/27 02:17:12;;;;;;;17.27;10.02;;;;;;;10.32;84.67;100799.03;4989426;28;20422;-73
2023/09/27 02:19:37;;;;;;;17.17;9.90;;;;;;;10.29;84.88;100795.66;5033399;28;20044;-72
2023/09/27 02:22:03;;;;;;;16.98;10.02;;;;;;;10.25;84.43;100802.09;5035705;28;20772;-71
2023/09/27 02:24:28;;;;;;;20.80;10.95;;;;;;;10.22;84.77;100802.25;5045462;28;20525;-68
2023/09/27 02:26:54;;;;;;;18.83;10.68;;;;;;;10.19;84.77;100798.78;5035832;28;20040;-70
2023/09/27 02:29:20;;;;;;;13.93;9.65;;;;;;;10.16;85.35;100793.56;5052526;28;20067;-70
2023/09/27 02:31:45;;;;;;;15.88;9.40;;;;;;;10.14;85.06;100795.47;5017437;28;20047;-68
2023/09/27 02:34:15;;;;;;;16.63;10.98;;;;;;;10.13;85.55;100803.56;4995306;28;20051;-71
2023/09/27 02:36:42;;;;;;;15.00;9.88;;;;;;;10.10;85.68;100793.03;5055092;28;20546;-71
2023/09/27 02:39:10;;;;;;;16.30;9.82;;;;;;;10.05;85.85;100832.38;5009076;28;20040;-74
2023/09/27 02:41:35;;;;;;;19.08;11.13;;;;;;;10.04;85.72;100799.56;5055259;28;20043;-70
2023/09/27 02:44:00;;;;;;;18.25;9.40;;;;;;;10.02;86.18;100805.91;5033455;28;20407;-71
2023/09/27 02:46:26;;;;;;;14.25;9.20;;;;;;;9.99;86.29;100800.72;5017388;28;20057;-73
2023/09/27 02:48:51;;;;;;;13.25;9.48;;;;;;;9.98;86.21;100809.66;5035064;28;20506;-73
2023/09/27 02:51:17;;;;;;;14.48;8.57;;;;;;;9.93;86.14;100812.53;5017306;28;20060;-72
2023/09/27 02:53:42;;;;;;;16.73;9.88;;;;;;;9.93;86.08;100812.53;5017421;28;20046;-71
2023/09/27 02:56:08;;;;;;;13.32;9.25;;;;;;;9.90;86.25;100814.50;5007900;28;20054;-72
2023/09/27 02:58:34;;;;;;;16.92;10.45;;;;;;;9.91;86.60;100792.25;5036765;28;20051;-73
2023/09/27 03:01:00;;;;;;;16.52;9.15;;;;;;;9.89;86.35;100794.13;5054922;28;20051;-72
2023/09/27 03:03:27;;;;;;;16.73;9.80;;;;;;;9.85;86.78;100809.41;5036772;28;20506;-73
2023/09/27 03:05:52;;;;;;;14.70;8.63;;;;;;;9.84;87.25;100805.88;5030299;28;20041;-73
2023/09/27 03:08:17;;;;;;;18.17;9.35;;;;;;;9.83;87.02;100803.28;5044112;28;20529;-72
2023/09/27 03:10:42;;;;;;;14.88;9.75;;;;;;;9.82;87.30;100821.06;5009596;28;20066;-75
2023/09/27 03:13:09;;;;;;;15.50;8.30;;;;;;;9.81;86.97;100803.38;5036343;28;20046;-73
2023/09/27 03:15:38;;;;;;;16.20;9.15;;;;;;;9.82;87.56;100807.75;5018946;28;20487;-70
2023/09/27 03:18:03;;;;;;;19.73;9.98;;;;;;;9.79;87.36;100805.25;5051597;28;20044;-69
2023/09/27 03:20:31;;;;;;;14.23;9.60;;;;;;;9.76;87.58;100789.41;5025964;28;20068;-72
2023/09/27 03:22:56;;;;;;;16.08;8.98;;;;;;;9.80;87.62;100799.00;5016005;28;20419;-69
2023/09/27 03:25:21;;;;;;;14.88;9.38;;;;;;;9.78;87.65;100808.84;5016886;28;20048;-69
2023/09/27 03:27:47;;;;;;;16.15;9.55;;;;;;;9.79;87.91;100812.38;5047563;28;20044;-76
2023/09/27 03:30:12;;;;;;;25.23;10.48;;;;;;;9.80;87.81;100801.66;5033508;28;20045;-71
2023/09/27 03:32:39;;;;;;;21.15;10.23;;;;;;;9.81;87.57;100799.84;5037044;28;20158;-71
2023/09/27 03:35:07;;;;;;;14.65;9.85;;;;;;;9.80;88.00;100806.97;5020023;28;20502;-71
2023/09/27 03:37:32;;;;;;;15.00;9.40;;;;;;;9.83;87.96;100812.13;4994546;28;20036;-74
2023/09/27 03:39:59;;;;;;;16.38;9.77;;;;;;;9.86;87.20;100836.91;5036383;28;20048;-70
2023/09/27 03:42:24;;;;;;;14.98;9.25;;;;;;;9.88;87.86;100813.72;5054583;28;20064;-74
2023/09/27 03:44:50;;;;;;;14.95;8.63;;;;;;;9.89;87.44;100800.31;5000097;28;20043;-72
2023/09/27 03:47:15;;;;;;;17.40;9.77;;;;;;;9.91;87.24;100801.13;5032751;28;20047;-72
2023/09/27 03:49:41;;;;;;;16.23;8.93;;;;;;;9.95;86.88;100823.09;5033711;28;20055;-72
2023/09/27 03:52:07;;;;;;;15.55;9.95;;;;;;;9.98;86.99;100814.97;4981109;28;20060;-71
2023/09/27 03:54:32;;;;;;;17.00;10.50;;;;;;;10.02;87.23;100821.88;5025237;28;20055;-71
2023/09/27 03:56:58;;;;;;;15.90;8.75;;;;;;;10.03;87.04;100818.28;4985425;28;20049;-71
2023/09/27 03:59:24;;;;;;;15.45;8.85;;;;;;;10.09;86.86;100796.66;5002519;28;20053;-71
2023/09/27 04:01:51;;;;;;;16.90;10.05;;;;;;;10.13;86.33;100804.41;5017834;28;20049;-73
2023/09/27 04:04:19;;;;;;;18.52;10.68;;;;;;;10.24;86.09;100805.69;5037179;28;20040;-72
2023/09/27 04:06:45;;;;;;;18.45;9.38;;;;;;;10.29;85.86;100825.81;5037035;28;20513;-72
2023/09/27 04:09:10;;;;;;;16.45;9.05;;;;;;;10.37;85.49;100797.00;5053738;28;20048;-73
2023/09/27 04:11:36;;;;;;;19.70;9.52;;;;;;;10.48;84.90;100799.97;5023918;28;20061;-71
2023/09/27 04:14:03;;;;;;;19.08;9.52;;;;;;;10.62;84.13;100796.53;4996883;28;20504;-71
2023/09/27 04:16:30;;;;;;;17.25;10.20;;;;;;;10.77;83.92;100784.19;4999728;28;20057;-77
2023/09/27 04:18:56;;;;;;;26.23;10.13;;;;;;;10.93;83.17;100795.75;5011413;28;20063;-76
2023/09/27 04:21:21;;;;;;;24.55;10.15;;;;;;;11.09;82.87;100785.94;5032048;28;20049;-78
2023/09/27 04:23:55;;;;;;;18.33;9.82;;;;;;;11.28;81.34;100778.66;5002217;28;20046;-78
2023/09/27 04:26:20;;;;;;;25.30;10.80;;;;;;;11.33;80.51;100790.88;5002090;28;20598;-77
2023/09/27 04:28:46;;;;;;;15.40;10.65;;;;;;;11.48;79.68;100798.88;5020959;28;20047;-79
2023/09/27 04:31:11;;;;;;;16.38;10.80;;;;;;;11.65;79.00;100789.91;5018218;28;20049;-78
2023/09/27 04:33:36;;;;;;;16.75;9.57;;;;;;;11.79;77.91;100792.66;5018072;28;20048;-78
2023/09/27 04:36:02;;;;;;;17.48;10.55;;;;;;;12.07;78.40;100783.03;5033982;28;20060;-72
2023/09/27 04:38:27;;;;;;;17.60;10.00;;;;;;;12.39;77.22;100791.78;5000119;28;20416;-69
2023/09/27 04:40:52;;;;;;;19.02;10.07;;;;;;;12.68;76.35;100791.72;4997969;28;20053;-71
2023/09/27 04:43:18;;;;;;;18.85;9.88;;;;;;;12.98;75.14;100806.84;4997560;28;20037;-72
2023/09/27 04:45:43;;;;;;;16.92;9.73;;;;;;;13.26;74.15;100788.09;4987370;28;20518;-71
2023/09/27 04:48:08;;;;;;;19.40;9.88;;;;;;;13.49;72.75;100780.38;5019384;28;20048;-71
2023/09/27 04:50:34;;;;;;;17.67;8.98;;;;;;;13.71;71.77;100802.97;5036075;28;20146;-70
2023/09/27 04:53:00;;;;;;;21.13;10.07;;;;;;;13.89;70.73;100783.94;5035838;28;20040;-70
2023/09/27 04:55:25;;;;;;;14.88;10.00;;;;;;;13.86;69.90;100790.38;5020085;28;20056;-70
2023/09/27 04:57:50;;;;;;;17.15;9.35;;;;;;;13.78;69.42;100781.97;5053105;28;20854;-71
2023/09/27 05:00:18;;;;;;;16.77;9.35;;;;;;;13.86;69.96;100786.84;5039188;28;20406;-70
2023/09/27 05:02:45;;;;;;;26.73;10.02;;;;;;;14.08;69.72;100790.66;5055497;28;20052;-70
2023/09/27 05:05:10;;;;;;;15.98;9.55;;;;;;;14.24;68.65;100794.97;5022258;28;20052;-70
2023/09/27 05:07:35;;;;;;;19.15;10.23;;;;;;;14.41;68.17;100775.94;5057158;28;20032;-72
2023/09/27 05:10:01;;;;;;;17.02;9.30;;;;;;;14.67;67.54;100792.91;5020356;28;20056;-73
2023/09/27 05:12:26;;;;;;;15.60;9.18;;;;;;;14.95;66.53;100781.06;5015174;28;20044;-74
2023/09/27 05:14:52;;;;;;;24.35;11.20;;;;;;;15.21;65.45;100793.47;5016818;28;20052;-73
2023/09/27 05:17:17;;;;;;;24.55;11.32;;;;;;;15.63;64.50;100778.75;4983451;28;20045;-73
2023/09/27 05:19:42;;;;;;;15.20;9.95;;;;;;;16.22;63.25;100771.53;5012108;28;20055;-73
2023/09/27 05:22:07;;;;;;;15.40;9.07;;;;;;;16.60;61.91;100792.75;5036486;28;20046;-72
2023/09/27 05:24:38;;;;;;;16.25;9.85;;;;;;;16.76;60.46;100803.22;5002138;28;20044;-72
2023/09/27 05:27:03;;;;;;;15.40;9.50;;;;;;;16.98;59.83;100754.75;5036323;28;20045;-74
2023/09/27 05:29:29;;;;;;;16.25;9.70;;;;;;;17.33;58.76;100783.38;5037231;28;20408;-73
2023/09/27 05:31:55;;;;;;;14.10;8.90;;;;;;;17.74;57.92;100780.84;5020695;28;20392;-72
2023/09/27 05:34:20;;;;;;;12.07;8.95;;;;;;;18.05;56.70;100800.75;4985292;28;20052;-72
2023/09/27 05:36:46;;;;;;;19.13;10.50;;;;;;;18.47;55.84;100789.97;5001129;28;20423;-73
2023/09/27 05:39:11;;;;;;;16.85;9.02;;;;;;;18.68;54.79;100780.03;5018365;28;20048;-72
2023/09/27 05:41:37;;;;;;;16.95;8.93;;;;;;;18.71;54.34;100763.56;5001841;28;20063;-71
2023/09/27 05:44:03;;;;;;;12.95;8.35;;;;;;;18.97;53.80;100765.78;5034297;28;20679;-72
2023/09/27 05:46:29;;;;;;;12.07;9.00;;;;;;;19.34;53.14;100774.16;5018422;28;20040;-72
2023/09/27 05:48:55;;;;;;;14.85;9.20;;;;;;;19.80;52.13;100771.72;5015406;28;20037;-72
2023/09/27 05:51:20;;;;;;;16.45;9.02;;;;;;;20.56;50.66;100774.53;4982144;28;20056;-73
2023/09/27 05:53:48;;;;;;;14.50;9.73;;;;;;;21.21;48.65;100775.50;4981611;28;20423;-78
2023/09/27 05:56:13;;;;;;;13.35;9.18;;;;;;;21.80;46.66;100755.97;5017711;28;20056;-72
2023/09/27 05:58:39;;;;;;;17.60;9.43;;;;;;;22.34;45.35;100759.53;5014247;28;20048;-74
2023/09/27 06:01:05;;;;;;;13.73;8.98;;;;;;;23.07;43.19;100768.16;5027692;28;20047;-72
2023/09/27 06:03:31;;;;;;;10.38;7.78;;;;;;;23.72;41.61;100762.97;5021665;28;20437;-73
2023/09/27 06:05:58;;;;;;;18.13;9.40;;;;;;;24.39;40.39;100761.00;5047676;28;20031;-74
2023/09/27 06:08:23;;;;;;;15.73;8.88;;;;;;;24.82;39.04;100768.78;5055376;28;20157;-73
2023/09/27 06:10:48;;;;;;;16.23;9.15;;;;;;;24.84;38.37;100772.16;5056637;28;20044;-72
2023/09/27 06:13:14;;;;;;;12.52;8.45;;;;;;;24.64;38.58;100787.22;5021537;28;20055;-73
2023/09/27 06:15:40;;;;;;;19.67;9.02;;;;;;;24.84;38.25;100768.59;5046216;28;20036;-72
2023/09/27 06:18:06;;;;;;;15.52;7.95;;;;;;;25.35;37.29;100767.25;5035535;28;20052;-73
2023/09/27 06:20:32;;;;;;;12.10;7.47;;;;;;;26.06;36.06;100779.84;5017768;28;20055;-73
2023/09/27 06:23:03;;;;;;;11.52;7.90;;;;;;;27.08;34.77;100775.66;5001454;28;20048;-73
2023/09/27 06:25:28;;;;;;;12.52;8.32;;;;;;;28.15;32.85;100752.06;5035525;28;20040;-74
2023/09/27 06:27:54;;;;;;;19.45;8.93;;;;;;;28.77;31.04;100771.41;5017710;28;20044;-74
2023/09/27 06:30:20;;;;;;;13.77;7.70;;;;;;;29.42;30.56;100750.91;5035397;28;20043;-73
2023/09/27 06:32:46;;;;;;;17.20;8.18;;;;;;;30.32;29.42;100774.41;5048465;28;20402;-72
2023/09/27 06:35:15;;;;;;;12.68;7.63;;;;;;;31.24;28.20;100745.94;5053527;28;20498;-73
2023/09/27 06:37:48;;;;;;;14.43;7.70;;;;;;;31.94;26.79;100760.66;5020237;28;20048;-73
2023/09/27 06:40:19;;;;;;;13.25;8.65;;;;;;;32.52;26.25;100760.44;4995485;28;20048;-72
2023/09/27 06:42:46;;;;;;;10.18;7.80;;;;;;;32.94;25.34;100764.31;5035514;28;20075;-73
2023/09/27 06:45:13;;;;;;;9.57;8.38;;;;;;;33.21;25.08;100764.84;5016913;28;20399;-71
2023/09/27 06:47:44;;;;;;;11.90;7.70;;;;;;;33.59;24.45;100778.47;5035139;28;20040;-71
2023/09/27 06:50:11;;;;;;;10.05;8.15;;;;;;;34.06;24.39;100765.69;5025570;28;20040;-72
2023/09/27 06:52:39;;;;;;;10.60;7.55;;;;;;;34.48;23.98;100755.44;5020194;28;20051;-71
2023/09/27 06:55:11;;;;;;;11.80;9.45;;;;;;;34.82;23.29;100762.94;5037664;28;20048;-72
2023/09/27 06:57:38;;;;;;;13.65;9.00;;;;;;;35.00;22.84;100774.97;5036850;28;20064;-72
2023/09/27 07:00:09;;;;;;;11.65;8.32;;;;;;;35.37;22.47;100737.56;5019356;28;20058;-72
2023/09/27 07:02:34;;;;;;;14.77;8.65;;;;;;;35.84;22.08;100757.69;5022934;28;20047;-73
2023/09/27 07:04:59;;;;;;;11.95;8.23;;;;;;;36.20;21.42;100763.88;5000341;28;20427;-72
2023/09/27 07:07:24;;;;;;;11.15;8.18;;;;;;;36.59;21.45;100745.38;5033561;28;20059;-73
2023/09/27 07:09:50;;;;;;;14.63;8.50;;;;;;;36.97;20.98;100741.81;5034315;28;20051;-73
2023/09/27 07:12:15;;;;;;;11.80;7.57;;;;;;;37.44;20.53;100744.97;5034857;28;20441;-73
2023/09/27 07:14:41;;;;;;;10.50;7.97;;;;;;;37.91;20.18;100747.19;5034643;28;20045;-73
2023/09/27 07:17:06;;;;;;;9.15;6.90;;;;;;;38.29;19.94;100752.56;5016767;28;20044;-72
2023/09/27 07:19:32;;;;;;;8.70;7.38;;;;;;;38.66;19.48;100738.69;5033362;28;20040;-73
2023/09/27 07:21:59;;;;;;;9.32;7.78;;;;;;;38.99;19.04;100736.69;5000070;28;20052;-74
2023/09/27 07:24:29;;;;;;;13.95;7.38;;;;;;;38.93;18.31;100758.09;5039997;28;20501;-77
2023/09/27 07:26:55;;;;;;;9.98;7.00;;;;;;;39.00;18.86;100760.66;5036147;28;20055;-74
2023/09/27 07:29:20;;;;;;;10.80;7.88;;;;;;;39.34;18.84;100772.28;5058150;28;20048;-73
2023/09/27 07:31:45;;;;;;;9.88;7.22;;;;;;;39.85;18.48;100754.63;5042982;28;20620;-75
2023/09/27 07:34:10;;;;;;;7.95;6.72;;;;;;;40.28;17.84;100741.31;5042959;28;20047;-74
2023/09/27 07:36:35;;;;;;;9.38;7.50;;;;;;;40.61;17.37;100740.72;5061153;28;20047;-74
2023/09/27 07:39:05;;;;;;;9.95;7.35;;;;;;;41.02;17.14;100759.38;5042859;28;20043;-74
2023/09/27 07:41:31;;;;;;;9.52;7.50;;;;;;;41.24;16.99;100740.31;5042744;28;20047;-75
2023/09/27 07:43:57;;;;;;;11.05;7.18;;;;;;;41.68;16.73;100743.19;5043140;28;20414;-76
2023/09/27 07:46:22;;;;;;;8.98;6.88;;;;;;;42.02;16.00;100751.69;5042275;28;20044;-74
2023/09/27 07:48:47;;;;;;;8.23;7.03;;;;;;;42.42;15.84;100761.75;5054814;28;20029;-74
2023/09/27 07:51:14;;;;;;;9.32;8.43;;;;;;;42.87;15.68;100748.44;5040546;28;20407;-75
2023/09/27 07:53:40;;;;;;;9.82;7.53;;;;;;;43.25;15.32;100747.44;5040737;28;20040;-75
2023/09/27 07:56:10;;;;;;;8.13;6.97;;;;;;;43.56;14.99;100747.06;5022199;28;20052;-75
2023/09/27 07:58:41;;;;;;;9.20;7.85;;;;;;;43.87;14.25;100753.91;5022870;28;20049;-74
2023/09/27 08:01:07;;;;;;;9.38;8.48;;;;;;;44.08;14.32;100732.81;5046985;28;20347;-75
2023/09/27 08:03:32;;;;;;;9.82;7.47;;;;;;;44.03;14.14;100746.94;5043088;28;20154;-75
2023/09/27 08:05:58;;;;;;;9.35;7.95;;;;;;;44.16;14.12;100746.16;5025610;28;20522;-75
2023/09/27 08:08:23;;;;;;;8.38;7.57;;;;;;;44.17;13.97;100752.63;5031344;28;20040;-74
2023/09/27 08:10:49;;;;;;;9.65;8.00;;;;;;;44.39;14.27;100732.31;5005232;28;20051;-74
2023/09/27 08:13:17;;;;;;;8.63;7.72;;;;;;;44.61;14.02;100734.44;5005639;28;20531;-75
2023/09/27 08:15:46;;;;;;;15.25;8.90;;;;;;;44.84;13.93;100734.28;5039267;28;20040;-73
2023/09/27 08:18:12;;;;;;;8.88;7.88;;;;;;;45.21;13.69;100727.66;5040697;28;20495;-73
2023/09/27 08:20:38;;;;;;;10.52;9.43;;;;;;;45.54;13.49;100731.16;5019734;28;20045;-72
2023/09/27 08:23:04;;;;;;;9.18;8.27;;;;;;;45.62;13.20;100726.75;4986410;28;20071;-75
2023/09/27 08:25:29;;;;;;;9.43;7.93;;;;;;;45.67;13.18;100728.63;5019778;28;20059;-75
2023/09/27 08:27:55;;;;;;;10.20;7.75;;;;;;;45.89;13.24;100749.25;5007609;28;20052;-73
2023/09/27 08:30:21;;;;;;;9.60;8.70;;;;;;;46.15;13.17;100735.38;5022601;28;20040;-75
2023/09/27 08:32:46;;;;;;;9.15;8.35;;;;;;;46.53;12.74;100712.41;5042089;28;20048;-72
2023/09/27 08:35:11;;;;;;;8.77;7.88;;;;;;;47.05;12.38;100705.03;5049537;28;20052;-74
2023/09/27 08:37:37;;;;;;;11.02;8.30;;;;;;;47.55;12.19;100708.31;5010363;28;20052;-72
2023/09/27 08:40:07;;;;;;;8.95;8.15;;;;;;;46.45;12.43;100701.91;5040172;28;20040;-73
2023/09/27 08:42:34;;;;;;;9.68;8.88;;;;;;;45.85;12.74;100708.72;5025859;28;20819;-73
2023/09/27 08:45:00;;;;;;;8.60;7.70;;;;;;;45.73;13.02;100707.63;5035498;28;20048;-75
2023/09/27 08:47:27;;;;;;;9.07;8.27;;;;;;;46.15;12.94;100723.25;5037492;28;20049;-72
2023/09/27 08:49:52;;;;;;;8.98;8.07;;;;;;;46.62;12.52;100708.44;5019159;28;20044;-73
2023/09/27 08:52:18;;;;;;;9.52;8.73;;;;;;;47.01;12.29;100701.22;5037192;28;20415;-74
2023/09/27 08:54:44;;;;;;;8.77;8.05;;;;;;;47.11;12.17;100688.78;5037545;28;20044;-74
2023/09/27 08:57:11;;;;;;;9.63;8.63;;;;;;;46.20;12.23;100715.50;5002107;28;20052;-74
2023/09/27 08:59:38;;;;;;;8.55;7.85;;;;;;;45.81;12.53;100696.44;5002868;28;20041;-76
2023/09/27 09:02:05;;;;;;;9.27;8.38;;;;;;;45.71;12.64;100701.50;5002387;28;20044;-74
2023/09/27 09:04:32;;;;;;;8.70;7.85;;;;;;;45.40;12.89;100702.16;5005001;28;20052;-74
2023/09/27 09:06:58;;;;;;;8.48;7.68;;;;;;;45.02;13.36;100706.38;5038081;28;20047;-73
2023/09/27 09:09:26;;;;;;;8.80;7.82;;;;;;;45.31;13.01;100689.97;5002832;28;20053;-75
2023/09/27 09:11:54;;;;;;;7.70;7.00;;;;;;;45.24;12.93;100689.59;5019399;28;20036;-74
2023/09/27 09:14:49;;;;;;;9.50;7.85;;;;;;;45.83;12.95;100687.66;5036417;28;20044;-74
2023/09/27 09:17:18;;;;;;;7.28;6.68;;;;;;;45.16;13.13;100690.31;5017861;28;20059;-74
2023/09/27 09:20:02;;;;;;;8.73;7.97;;;;;;;45.53;12.81;100683.59;5036528;28;20041;-74
2023/09/27 09:22:30;;;;;;;8.93;7.45;;;;;;;45.40;12.92;100699.34;5018375;28;20052;-75
2023/09/27 09:24:59;;;;;;;10.18;8.15;;;;;;;45.15;12.90;100683.03;5036464;28;20045;-75
2023/09/27 09:27:24;;;;;;;9.45;8.57;;;;;;;44.99;13.17;100695.72;5034370;28;20052;-76
2023/09/27 09:29:51;;;;;;;9.10;7.85;;;;;;;44.63;13.39;100687.13;5036202;28;20045;-76
2023/09/27 09:32:19;;;;;;;9.15;8.00;;;;;;;44.61;13.52;100679.00;5036553;28;20049;-75
2023/09/27 09:34:49;;;;;;;8.13;6.93;;;;;;;45.02;13.14;100681.03;5018106;28;20041;-77
2023/09/27 09:37:28;;;;;;;11.05;6.82;;;;;;;45.65;13.27;100680.22;5017522;28;20056;-76
2023/09/27 09:40:13;;;;;;;7.85;7.15;;;;;;;45.54;13.26;100669.19;5036115;28;20036;-76
2023/09/27 09:42:38;;;;;;;8.35;7.70;;;;;;;44.59;13.45;100674.88;5018534;28;20044;-76
2023/09/27 09:45:06;;;;;;;8.00;7.30;;;;;;;43.39;14.31;100666.13;5036381;28;20513;-76
2023/09/27 09:47:32;;;;;;;9.70;7.55;;;;;;;42.56;14.82;100656.16;5017872;28;20708;-74
2023/09/27 09:49:58;;;;;;;6.57;5.97;;;;;;;41.96;15.25;100658.44;5017104;28;20059;-75
2023/09/27 09:52:28;;;;;;;6.90;6.18;;;;;;;41.82;15.19;100665.81;5034738;28;20060;-74
2023/09/27 09:54:57;;;;;;;9.02;6.10;;;;;;;41.52;15.61;100680.00;5018418;28;20048;-75
2023/09/27 09:57:31;;;;;;;7.28;5.85;;;;;;;41.02;15.91;100639.09;5035780;28;20056;-75
2023/09/27 10:00:16;;;;;;;6.55;5.38;;;;;;;40.23;16.25;100651.84;4997392;28;20053;-74
2023/09/27 10:02:53;;;;;;;6.63;6.00;;;;;;;39.55;16.51;100659.63;5031314;28;20051;-74
2023/09/27 10:05:22;;;;;;;5.45;4.95;;;;;;;39.38;16.87;100659.84;5035535;28;20487;-75
2023/09/27 10:07:49;;;;;;;6.03;5.50;;;;;;;38.93;17.24;100649.34;5017554;28;20052;-76
2023/09/27 10:10:17;;;;;;;5.55;5.05;;;;;;;37.48;18.00;100659.03;5035396;28;20051;-75
2023/09/27 10:12:46;;;;;;;5.90;5.10;;;;;;;35.55;19.65;100648.63;5032967;28;20044;-76
2023/09/27 10:15:16;;;;;;;8.95;5.30;;;;;;;33.76;21.22;100652.28;5017161;28;20415;-75
2023/09/27 10:17:41;;;;;;;7.70;5.00;;;;;;;32.23;22.98;100651.59;5016934;28;20045;-76
2023/09/27 10:20:22;;;;;;;4.75;4.25;;;;;;;30.90;24.88;100669.97;5035072;28;20044;-74
2023/09/27 10:22:50;;;;;;;5.28;4.22;;;;;;;29.71;26.01;100660.91;5006976;28;20406;-75
2023/09/27 10:25:28;;;;;;;8.05;4.57;;;;;;;28.97;27.34;100655.41;5049651;28;20052;-75
2023/09/27 10:28:01;;;;;;;6.22;4.53;;;;;;;28.10;28.19;100653.13;5050521;28;20047;-75
2023/09/27 10:30:48;;;;;;;7.70;4.60;;;;;;;27.63;29.02;100657.34;5050456;28;20041;-75
2023/09/27 10:33:16;;;;;;;6.18;4.10;;;;;;;26.67;30.16;100644.75;5033287;28;20035;-74
2023/09/27 10:35:44;;;;;;;6.90;4.75;;;;;;;26.11;30.84;100648.94;5048612;28;20509;-74
2023/09/27 10:38:10;;;;;;;7.97;5.30;;;;;;;25.66;31.49;100647.97;5018960;28;20075;-79
2023/09/27 10:40:50;;;;;;;7.57;4.60;;;;;;;25.50;32.32;100653.53;5049480;28;20056;-80
2023/09/27 10:43:34;;;;;;;6.78;4.40;;;;;;;25.18;32.18;100650.97;5024676;28;20059;-79
2023/09/27 10:46:00;;;;;;;5.00;3.83;;;;;;;24.64;32.89;100650.88;5049914;28;20494;-80
2023/09/27 10:48:25;;;;;;;4.60;3.60;;;;;;;24.33;33.47;100642.63;5051096;28;20051;-81
2023/09/27 10:50:56;;;;;;;7.53;4.32;;;;;;;24.03;33.89;100668.72;5052371;28;20044;-83
2023/09/27 10:53:22;;;;;;;6.85;4.40;;;;;;;23.83;34.03;100651.00;5053337;28;20494;-79
2023/09/27 10:55:47;;;;;;;8.00;4.90;;;;;;;23.64;34.44;100657.63;5054755;28;20067;-81
2023/09/27 10:58:16;;;;;;;6.97;4.28;;;;;;;23.47;35.29;100650.47;5048706;28;20048;-77
2023/09/27 11:00:56;;;;;;;7.05;3.80;;;;;;;23.42;36.11;100659.13;5041631;28;20044;-78
2023/09/27 11:03:23;;;;;;;7.45;4.20;;;;;;;23.14;36.39;100654.97;5008167;28;20048;-77
2023/09/27 11:05:49;;;;;;;10.80;4.93;;;;;;;22.97;35.94;100635.03;5033082;28;20052;-76
2023/09/27 11:08:25;;;;;;;8.13;3.55;;;;;;;22.90;36.36;100650.31;5008751;28;20393;-76
2023/09/27 11:10:55;;;;;;;6.55;4.35;;;;;;;22.68;36.55;100659.03;5007500;28;20053;-77
2023/09/27 11:13:21;;;;;;;6.50;3.75;;;;;;;22.55;36.57;100656.75;5012720;28;20392;-77
2023/09/27 11:15:46;;;;;;;5.63;4.13;;;;;;;22.44;36.60;100640.72;5001374;28;20056;-78
2023/09/27 11:18:11;;;;;;;6.68;4.65;;;;;;;22.32;36.67;100631.16;5036723;28;20051;-79
2023/09/27 11:20:39;;;;;;;4.65;3.85;;;;;;;22.22;37.05;100642.13;5035050;28;20044;-77